createdAt,value
2018-04-19T00:00:40.536Z,17.10
2018-04-19T00:03:08.970Z,17.13
2018-04-19T00:05:37.338Z,17.06
2018-04-19T00:08:05.740Z,17.03
2018-04-19T00:10:34.213Z,16.99
2018-04-19T00:13:02.833Z,16.95
2018-04-19T00:15:32.101Z,16.95
2018-04-19T00:18:01.282Z,16.92
2018-04-19T00:20:29.694Z,16.91
2018-04-19T00:22:58.824Z,16.86
2018-04-19T00:25:27.308Z,16.83
2018-04-19T00:27:55.793Z,16.84
2018-04-19T00:30:24.170Z,16.78
2018-04-19T00:32:52.656Z,16.73
2018-04-19T00:35:21.085Z,16.72
2018-04-19T00:37:49.865Z,16.70
2018-04-19T00:40:18.261Z,16.65
2018-04-19T00:42:47.439Z,16.65
2018-04-19T00:45:15.814Z,16.64
2018-04-19T00:47:44.171Z,16.63
2018-04-19T00:50:12.636Z,16.61
2018-04-19T00:52:58.851Z,16.58
2018-04-19T00:55:27.245Z,16.58
2018-04-19T00:57:55.630Z,16.56
2018-04-19T01:00:23.975Z,16.56
2018-04-19T01:02:52.357Z,16.56
2018-04-19T01:05:20.708Z,16.61
2018-04-19T01:07:49.061Z,16.61
2018-04-19T01:10:18.201Z,16.59
2018-04-19T01:12:46.586Z,16.55
2018-04-19T01:15:15.051Z,16.54
2018-04-19T01:17:43.401Z,16.50
2018-04-19T01:20:12.508Z,16.46
2018-04-19T01:22:40.863Z,16.46
2018-04-19T01:25:09.228Z,16.46
2018-04-19T01:27:37.605Z,16.48
2018-04-19T01:30:05.955Z,16.55
2018-04-19T01:32:34.347Z,16.61
2018-04-19T01:35:02.681Z,16.60
2018-04-19T01:37:31.904Z,16.56
2018-04-19T01:40:00.301Z,16.54
2018-04-19T01:42:28.669Z,16.46
2018-04-19T01:44:57.093Z,16.47
2018-04-19T01:47:26.245Z,16.50
2018-04-19T01:49:54.591Z,16.51
2018-04-19T01:52:22.944Z,16.53
2018-04-19T01:54:51.288Z,16.51
2018-04-19T01:57:19.657Z,16.45
2018-04-19T01:59:48.764Z,16.44
2018-04-19T02:02:17.114Z,16.40
2018-04-19T02:04:45.546Z,16.42
2018-04-19T02:07:14.669Z,16.38
2018-04-19T02:09:43.779Z,16.37
2018-04-19T02:12:12.629Z,16.30
2018-04-19T02:14:40.977Z,16.22
2018-04-19T02:17:09.766Z,16.22
2018-04-19T02:19:38.128Z,16.19
2018-04-19T02:22:06.528Z,16.17
2018-04-19T02:24:34.891Z,16.14
2018-04-19T02:27:03.250Z,16.11
2018-04-19T02:29:31.606Z,16.09
2018-04-19T02:32:01.914Z,16.06
2018-04-19T02:34:30.406Z,16.03
2018-04-19T02:36:59.563Z,16.00
2018-04-19T02:39:27.944Z,15.97
2018-04-19T02:41:56.372Z,15.95
2018-04-19T02:44:25.527Z,15.96
2018-04-19T02:46:53.873Z,15.85
2018-04-19T02:49:22.234Z,15.86
2018-04-19T02:51:51.352Z,15.84
2018-04-19T02:54:19.706Z,15.81
2018-04-19T02:56:49.061Z,15.78
2018-04-19T02:59:17.435Z,15.75
2018-04-19T03:01:45.771Z,15.70
2018-04-19T03:04:14.366Z,15.74
2018-04-19T03:06:43.147Z,15.68
2018-04-19T03:09:11.509Z,15.69
2018-04-19T03:11:40.668Z,15.71
2018-04-19T03:14:09.071Z,15.70
2018-04-19T03:16:38.223Z,15.64
2018-04-19T03:19:06.714Z,15.62
2018-04-19T03:21:35.098Z,15.65
2018-04-19T03:24:03.503Z,15.65
2018-04-19T03:26:31.942Z,15.59
2018-04-19T03:29:00.386Z,15.56
2018-04-19T03:31:28.910Z,15.52
2018-04-19T03:33:57.261Z,15.49
2018-04-19T03:36:25.665Z,15.45
2018-04-19T03:38:54.006Z,15.41
2018-04-19T03:41:23.146Z,15.41
2018-04-19T03:43:51.515Z,15.35
2018-04-19T03:46:19.857Z,15.34
2018-04-19T03:48:49.031Z,15.31
2018-04-19T03:51:17.367Z,15.32
2018-04-19T03:53:45.726Z,15.32
2018-04-19T03:56:14.093Z,15.27
2018-04-19T03:58:42.468Z,15.29
2018-04-19T04:01:11.678Z,15.30
2018-04-19T04:03:39.992Z,15.23
2018-04-19T04:06:08.350Z,15.19
2018-04-19T04:08:36.699Z,15.17
2018-04-19T04:11:05.857Z,15.15
2018-04-19T04:13:34.951Z,15.13
2018-04-19T04:16:03.341Z,15.11
2018-04-19T04:18:49.572Z,15.10
2018-04-19T04:21:18.760Z,15.12
2018-04-19T04:23:53.934Z,15.09
2018-04-19T04:26:22.996Z,14.96
2018-04-19T04:28:52.122Z,14.99
2018-04-19T04:31:20.555Z,14.98
2018-04-19T04:33:49.012Z,14.95
2018-04-19T04:36:17.504Z,14.94
2018-04-19T04:38:45.873Z,14.93
2018-04-19T04:41:14.342Z,14.91
2018-04-19T04:43:42.860Z,14.90
2018-04-19T04:46:12.625Z,14.91
2018-04-19T04:48:41.010Z,14.91
2018-04-19T04:51:09.410Z,14.93
2018-04-19T04:53:37.791Z,14.96
2018-04-19T04:56:06.196Z,14.92
2018-04-19T04:58:35.347Z,14.91
2018-04-19T05:01:03.761Z,14.91
2018-04-19T05:03:32.164Z,14.98
2018-04-19T05:06:01.309Z,14.94
2018-04-19T05:08:30.441Z,14.95
2018-04-19T05:10:59.697Z,14.99
2018-04-19T05:13:28.060Z,15.01
2018-04-19T05:15:56.406Z,15.03
2018-04-19T05:18:24.799Z,15.04
2018-04-19T05:20:53.150Z,15.07
2018-04-19T05:23:22.261Z,15.12
2018-04-19T05:25:51.484Z,15.15
2018-04-19T05:28:19.864Z,15.18
2018-04-19T05:30:48.208Z,15.19
2018-04-19T05:33:16.651Z,15.26
2018-04-19T05:35:45.939Z,15.29
2018-04-19T05:38:14.301Z,15.34
2018-04-19T05:40:42.660Z,15.37
2018-04-19T05:43:11.821Z,15.43
2018-04-19T05:45:40.244Z,15.46
2018-04-19T05:48:10.358Z,15.50
2018-04-19T05:50:42.448Z,15.58
2018-04-19T05:53:10.793Z,15.63
2018-04-19T05:55:39.960Z,15.70
2018-04-19T05:58:08.373Z,15.81
2018-04-19T06:00:37.499Z,15.89
2018-04-19T06:03:06.021Z,15.96
2018-04-19T06:05:35.389Z,16.02
2018-04-19T06:08:03.806Z,16.07
2018-04-19T06:10:32.331Z,16.10
2018-04-19T06:13:00.812Z,16.17
2018-04-19T06:15:29.168Z,16.20
2018-04-19T06:17:58.340Z,16.30
2018-04-19T06:20:26.898Z,16.38
2018-04-19T06:22:55.262Z,16.45
2018-04-19T06:25:23.589Z,16.51
2018-04-19T06:27:52.180Z,16.56
2018-04-19T06:30:20.947Z,16.58
2018-04-19T06:32:49.627Z,16.65
2018-04-19T06:35:18.078Z,16.64
2018-04-19T06:37:46.441Z,16.69
2018-04-19T06:40:14.812Z,16.78
2018-04-19T06:42:43.193Z,16.83
2018-04-19T06:45:11.586Z,16.92
2018-04-19T06:47:39.972Z,17.02
2018-04-19T06:50:08.349Z,17.08
2018-04-19T06:52:37.544Z,17.11
2018-04-19T06:55:06.867Z,17.18
2018-04-19T06:57:35.242Z,17.19
2018-04-19T07:00:04.108Z,17.30
2018-04-19T07:02:33.568Z,17.43
2018-04-19T07:05:01.973Z,17.55
2018-04-19T07:07:31.137Z,17.65
2018-04-19T07:09:59.761Z,17.77
2018-04-19T07:12:28.881Z,17.85
2018-04-19T07:14:57.265Z,17.95
2018-04-19T07:17:25.804Z,18.06
2018-04-19T07:19:54.944Z,18.16
2018-04-19T07:22:25.413Z,18.24
2018-04-19T07:24:54.550Z,18.31
2018-04-19T07:27:22.974Z,18.36
2018-04-19T07:29:51.415Z,18.41
2018-04-19T07:32:19.807Z,18.50
2018-04-19T07:34:48.177Z,18.60
2018-04-19T07:37:16.563Z,18.70
2018-04-19T07:39:45.007Z,18.79
2018-04-19T07:42:14.190Z,18.90
2018-04-19T07:44:43.352Z,18.97
2018-04-19T07:47:11.716Z,19.08
2018-04-19T07:49:40.150Z,19.22
2018-04-19T07:52:09.258Z,19.30
2018-04-19T07:54:38.410Z,19.36
2018-04-19T07:57:06.795Z,19.41
2018-04-19T07:59:35.161Z,19.51
2018-04-19T08:02:03.545Z,19.60
2018-04-19T08:04:33.051Z,19.70
2018-04-19T08:07:02.134Z,19.80
2018-04-19T08:09:30.520Z,19.88
2018-04-19T08:11:58.894Z,19.97
2018-04-19T08:14:27.286Z,20.07
2018-04-19T08:16:55.651Z,20.14
2018-04-19T08:19:24.083Z,20.20
2018-04-19T08:21:53.296Z,20.26
2018-04-19T08:24:21.702Z,20.33
2018-04-19T08:26:50.412Z,20.40
2018-04-19T08:29:18.782Z,20.45
2018-04-19T08:31:47.186Z,20.53
2018-04-19T08:34:15.568Z,20.60
2018-04-19T08:36:43.930Z,20.67
2018-04-19T08:39:12.306Z,20.74
2018-04-19T08:41:40.675Z,20.84
2018-04-19T08:44:09.053Z,20.91
2018-04-19T08:46:37.446Z,20.94
2018-04-19T08:49:06.743Z,21.01
2018-04-19T08:51:35.076Z,21.06
2018-04-19T08:54:04.143Z,21.15
2018-04-19T08:56:33.269Z,21.26
2018-04-19T08:59:01.678Z,21.31
2018-04-19T09:01:30.852Z,21.38
2018-04-19T09:03:59.931Z,21.45
2018-04-19T09:06:28.309Z,21.48
2018-04-19T09:08:56.685Z,21.53
2018-04-19T09:11:25.855Z,21.57
2018-04-19T09:13:54.204Z,21.64
2018-04-19T09:16:22.567Z,21.74
2018-04-19T09:18:50.949Z,21.84
2018-04-19T09:21:19.333Z,21.93
2018-04-19T09:23:47.694Z,21.98
2018-04-19T09:26:16.899Z,21.98
2018-04-19T09:28:45.297Z,22.03
2018-04-19T09:31:13.711Z,22.07
2018-04-19T09:33:42.837Z,22.16
2018-04-19T09:36:11.203Z,22.24
2018-04-19T09:38:40.214Z,22.29
2018-04-19T09:41:08.601Z,22.35
2018-04-19T09:43:37.693Z,22.45
2018-04-19T09:46:06.066Z,22.55
2018-04-19T09:48:35.272Z,22.67
2018-04-19T09:51:03.700Z,22.78
2018-04-19T09:53:32.130Z,22.81
2018-04-19T09:56:00.521Z,22.83
2018-04-19T09:58:28.932Z,22.88
2018-04-19T10:01:02.856Z,22.93
2018-04-19T10:03:37.496Z,22.96
2018-04-19T10:06:09.085Z,23.04
2018-04-19T10:08:37.767Z,23.13
2018-04-19T10:11:06.226Z,23.22
2018-04-19T10:13:34.569Z,23.33
2018-04-19T10:16:03.069Z,23.40
2018-04-19T10:18:31.401Z,23.44
2018-04-19T10:20:59.799Z,23.53
2018-04-19T10:23:28.159Z,23.61
2018-04-19T10:25:56.831Z,23.69
2018-04-19T10:28:25.281Z,23.77
2018-04-19T10:30:53.690Z,23.87
2018-04-19T10:33:22.804Z,23.94
2018-04-19T10:35:51.195Z,23.90
2018-04-19T10:38:19.554Z,23.96
2018-04-19T10:40:48.877Z,24.01
2018-04-19T10:43:17.282Z,24.09
2018-04-19T10:45:46.503Z,24.15
2018-04-19T10:48:14.948Z,24.27
2018-04-19T10:50:43.303Z,24.34
2018-04-19T10:53:11.769Z,24.45
2018-04-19T10:55:40.167Z,24.40
2018-04-19T10:58:08.546Z,24.42
2018-04-19T11:00:39.110Z,24.39
2018-04-19T11:03:08.252Z,24.49
2018-04-19T11:05:36.612Z,24.64
2018-04-19T11:08:05.754Z,24.72
2018-04-19T11:10:37.328Z,24.76
2018-04-19T11:13:05.707Z,24.78
2018-04-19T11:15:34.092Z,24.85
2018-04-19T11:18:04.052Z,24.91
2018-04-19T11:20:32.436Z,24.97
2018-04-19T11:23:01.082Z,25.00
2018-04-19T11:25:30.618Z,25.07
2018-04-19T11:27:58.982Z,25.11
2018-04-19T11:30:27.366Z,25.18
2018-04-19T11:32:55.757Z,25.18
2018-04-19T11:35:25.001Z,25.29
2018-04-19T11:37:53.334Z,25.50
2018-04-19T11:40:21.888Z,25.60
2018-04-19T11:42:51.011Z,25.62
2018-04-19T11:45:19.578Z,25.65
2018-04-19T11:47:47.958Z,25.69
2018-04-19T11:50:16.418Z,25.76
2018-04-19T11:52:45.579Z,25.83
2018-04-19T11:55:13.936Z,25.88
2018-04-19T11:57:43.215Z,25.92
2018-04-19T12:00:13.240Z,25.97
2018-04-19T12:05:17.713Z,26.09
2018-04-19T12:07:46.179Z,26.17
2018-04-19T12:10:15.386Z,26.25
2018-04-19T12:12:46.222Z,26.33
2018-04-19T12:15:14.891Z,26.41
2018-04-19T12:17:43.245Z,26.50
2018-04-19T12:20:12.388Z,26.63
2018-04-19T12:22:41.549Z,26.70
2018-04-19T12:25:09.928Z,26.71
2018-04-19T12:27:38.267Z,26.73
2018-04-19T12:30:06.803Z,26.81
2018-04-19T12:32:37.076Z,26.85
2018-04-19T12:35:07.893Z,26.92
2018-04-19T12:37:36.377Z,26.91
2018-04-19T12:40:04.848Z,27.01
2018-04-19T12:42:33.224Z,27.00
2018-04-19T12:45:01.976Z,27.08
2018-04-19T12:47:31.403Z,27.15
2018-04-19T12:49:59.797Z,27.21
2018-04-19T12:52:28.581Z,27.37
2018-04-19T12:54:56.972Z,27.50
2018-04-19T12:57:26.368Z,27.54
2018-04-19T12:59:54.796Z,27.47
2018-04-19T13:02:24.301Z,27.58
2018-04-19T13:04:52.858Z,27.66
2018-04-19T13:07:22.948Z,27.66
2018-04-19T13:09:52.244Z,27.70
2018-04-19T13:12:20.838Z,27.76
2018-04-19T13:14:50.242Z,27.77
2018-04-19T13:17:19.418Z,27.78
2018-04-19T13:19:49.053Z,27.81
2018-04-19T13:22:17.476Z,27.91
2018-04-19T13:24:46.924Z,27.96
2018-04-19T13:27:16.377Z,27.95
2018-04-19T13:29:44.724Z,28.04
2018-04-19T13:32:13.822Z,28.08
2018-04-19T13:34:42.672Z,28.16
2018-04-19T13:37:11.343Z,28.27
2018-04-19T13:39:41.605Z,28.35
2018-04-19T13:42:13.374Z,28.38
2018-04-19T13:44:41.782Z,28.39
2018-04-19T13:47:10.877Z,28.35
2018-04-19T13:49:40.053Z,28.38
2018-04-19T13:52:08.529Z,28.41
2018-04-19T13:54:39.089Z,28.34
2018-04-19T13:57:09.112Z,28.39
2018-04-19T13:59:41.170Z,28.40
2018-04-19T14:02:11.220Z,28.40
2018-04-19T14:04:40.327Z,28.41
2018-04-19T14:07:08.730Z,28.44
2018-04-19T14:09:38.164Z,28.49
2018-04-19T14:12:08.288Z,28.52
2018-04-19T14:14:37.447Z,28.57
2018-04-19T14:17:05.895Z,28.57
2018-04-19T14:19:37.395Z,28.63
2018-04-19T14:22:06.551Z,28.63
2018-04-19T14:24:34.962Z,28.69
2018-04-19T14:27:03.387Z,28.78
2018-04-19T14:29:32.167Z,28.88
2018-04-19T14:32:00.526Z,29.02
2018-04-19T14:34:29.848Z,29.04
2018-04-19T14:36:58.546Z,28.99
2018-04-19T14:39:26.943Z,29.01
2018-04-19T14:42:06.235Z,28.96
2018-04-19T14:44:37.006Z,29.00
2018-04-19T14:47:05.370Z,28.95
2018-04-19T14:49:34.017Z,28.90
2018-04-19T14:52:02.771Z,28.94
2018-04-19T14:54:31.671Z,28.83
2018-04-19T14:57:00.094Z,28.85
2018-04-19T14:59:29.340Z,28.72
2018-04-19T15:01:57.776Z,28.72
2018-04-19T15:04:27.732Z,28.67
2018-04-19T15:06:56.319Z,28.66
2018-04-19T15:09:24.860Z,28.65
2018-04-19T15:11:53.298Z,28.76
2018-04-19T15:14:22.368Z,28.67
2018-04-19T15:16:50.901Z,28.79
2018-04-19T15:19:23.518Z,28.59
2018-04-19T15:21:51.949Z,28.57
2018-04-19T15:24:20.511Z,28.58
2018-04-19T15:26:49.058Z,28.56
2018-04-19T15:29:17.511Z,28.49
2018-04-19T15:31:47.476Z,28.43
2018-04-19T15:34:15.923Z,28.50
2018-04-19T15:36:44.288Z,28.53
2018-04-19T15:39:13.592Z,28.41
2018-04-19T15:41:42.355Z,28.56
2018-04-19T15:44:10.824Z,28.64
2018-04-19T15:46:50.119Z,28.63
2018-04-19T15:49:18.763Z,28.59
2018-04-19T15:51:48.198Z,28.67
2018-04-19T15:54:17.443Z,28.86
2018-04-19T15:56:46.255Z,29.17
2018-04-19T15:59:14.586Z,29.43
2018-04-19T16:01:55.036Z,29.45
2018-04-19T16:04:23.338Z,29.66
2018-04-19T16:06:51.862Z,29.69
2018-04-19T16:09:20.979Z,29.57
2018-04-19T16:11:52.856Z,29.39
2018-04-19T16:14:19.297Z,29.50
2018-04-19T16:16:48.271Z,29.40
2018-04-19T16:19:18.295Z,29.23
2018-04-19T16:21:46.664Z,29.01
2018-04-19T16:24:16.049Z,28.80
2018-04-19T16:26:44.475Z,28.78
2018-04-19T16:29:12.859Z,28.63
2018-04-19T16:31:41.265Z,28.49
2018-04-19T16:34:09.703Z,28.30
2018-04-19T16:36:38.930Z,28.22
2018-04-19T16:39:07.325Z,27.98
2018-04-19T16:41:36.765Z,27.81
2018-04-19T16:44:05.146Z,27.59
2018-04-19T16:46:33.509Z,27.26
2018-04-19T16:49:04.597Z,27.08
2018-04-19T16:51:34.244Z,26.88
2018-04-19T16:54:04.160Z,26.78
2018-04-19T16:56:33.454Z,26.55
2018-04-19T16:59:01.843Z,26.38
2018-04-19T17:01:30.993Z,26.23
2018-04-19T17:03:59.805Z,26.13
2018-04-19T17:06:29.177Z,25.99
2018-04-19T17:08:58.627Z,25.90
2018-04-19T17:11:27.745Z,25.85
2018-04-19T17:13:56.937Z,25.72
2018-04-19T17:16:25.622Z,25.66
2018-04-19T17:18:54.806Z,25.60
2018-04-19T17:21:23.978Z,25.56
2018-04-19T17:23:52.392Z,25.51
2018-04-19T17:26:20.965Z,25.42
2018-04-19T17:28:50.176Z,25.41
2018-04-19T17:31:19.338Z,25.33
2018-04-19T17:33:49.088Z,25.33
2018-04-19T17:36:18.355Z,25.23
2018-04-19T17:38:48.533Z,25.17
2018-04-19T17:41:17.896Z,25.08
2018-04-19T17:43:47.225Z,24.96
2018-04-19T17:46:15.755Z,24.91
2018-04-19T17:48:44.488Z,24.77
2018-04-19T17:51:13.351Z,24.70
2018-04-19T17:53:42.851Z,24.67
2018-04-19T17:56:11.298Z,24.58
2018-04-19T17:58:39.685Z,24.56
2018-04-19T18:01:08.108Z,24.48
2018-04-19T18:03:37.323Z,24.40
2018-04-19T18:06:06.556Z,24.35
2018-04-19T18:08:34.966Z,24.20
2018-04-19T18:11:03.433Z,24.13
2018-04-19T18:13:31.932Z,24.09
2018-04-19T18:16:01.869Z,24.00
2018-04-19T18:18:31.031Z,23.95
2018-04-19T18:21:00.084Z,23.91
2018-04-19T18:23:28.460Z,23.85
2018-04-19T18:25:57.072Z,23.81
2018-04-19T18:28:25.501Z,23.72
2018-04-19T18:30:54.634Z,23.63
2018-04-19T18:33:23.096Z,23.54
2018-04-19T18:35:51.492Z,23.46
2018-04-19T18:38:20.575Z,23.42
2018-04-19T18:40:48.929Z,23.39
2018-04-19T18:43:18.595Z,23.30
2018-04-19T18:45:47.677Z,23.20
2018-04-19T18:48:16.121Z,23.17
2018-04-19T18:50:44.493Z,23.09
2018-04-19T18:53:13.625Z,23.03
2018-04-19T18:55:42.050Z,23.01
2018-04-19T18:58:10.977Z,22.87
2018-04-19T19:00:39.483Z,22.87
2018-04-19T19:03:08.433Z,22.79
2018-04-19T19:05:37.666Z,22.79
2018-04-19T19:08:06.095Z,22.75
2018-04-19T19:10:34.590Z,22.66
2018-04-19T19:13:03.933Z,22.61
2018-04-19T19:19:18.100Z,22.55
2018-04-19T19:21:46.583Z,22.55
2018-04-19T19:24:15.703Z,22.48
2018-04-19T19:26:45.437Z,22.48
2018-04-19T19:29:14.712Z,22.42
2018-04-19T19:31:43.789Z,22.39
2018-04-19T19:34:12.217Z,22.38
2018-04-19T19:36:41.377Z,22.32
2018-04-19T19:39:11.318Z,22.31
2018-04-19T19:41:39.714Z,22.30
2018-04-19T19:44:09.843Z,22.27
2018-04-19T19:46:38.971Z,22.23
2018-04-19T19:49:08.726Z,22.19
2018-04-19T19:51:40.484Z,22.18
2018-04-19T19:54:09.125Z,22.11
2018-04-19T19:56:42.691Z,22.08
2018-04-19T19:59:12.037Z,22.04
2018-04-19T20:01:40.410Z,22.01
2018-04-19T20:04:09.780Z,21.97
2018-04-19T20:06:39.319Z,21.93
2018-04-19T20:09:08.048Z,21.88
2018-04-19T20:11:37.652Z,21.78
2018-04-19T20:14:06.355Z,21.66
2018-04-19T20:16:35.759Z,21.66
2018-04-19T20:19:05.035Z,21.58
2018-04-19T20:21:33.515Z,21.54
2018-04-19T20:24:01.937Z,21.50
2018-04-19T20:26:31.113Z,21.48
2018-04-19T20:28:59.571Z,21.45
2018-04-19T20:31:27.961Z,21.44
2018-04-19T20:33:56.323Z,21.39
2018-04-19T20:36:24.693Z,21.26
2018-04-19T20:38:53.848Z,21.19
2018-04-19T20:41:23.148Z,21.18
2018-04-19T20:43:52.369Z,21.24
2018-04-19T20:46:21.644Z,21.18
2018-04-19T20:48:51.055Z,21.10
2018-04-19T20:51:19.473Z,21.09
2018-04-19T20:53:47.979Z,21.10
2018-04-19T20:56:16.327Z,21.08
2018-04-19T20:58:44.793Z,21.06
2018-04-19T21:01:13.981Z,21.01
2018-04-19T21:03:43.253Z,20.92
2018-04-19T21:06:12.446Z,20.87
2018-04-19T21:08:42.338Z,20.90
2018-04-19T21:11:11.561Z,20.81
2018-04-19T21:13:41.303Z,20.80
2018-04-19T21:16:09.693Z,20.74
2018-04-19T21:18:38.102Z,20.68
2018-04-19T21:21:06.518Z,20.63
2018-04-19T21:23:34.948Z,20.59
2018-04-19T21:26:03.525Z,20.54
2018-04-19T21:28:32.096Z,20.47
2018-04-19T21:31:00.623Z,20.48
2018-04-19T21:33:29.042Z,20.43
2018-04-19T21:35:57.491Z,20.45
2018-04-19T21:38:26.641Z,20.47
2018-04-19T21:40:54.977Z,20.48
2018-04-19T21:43:24.132Z,20.40
2018-04-19T21:45:52.903Z,20.30
2018-04-19T21:48:21.267Z,20.26
2018-04-19T21:50:49.656Z,20.24
2018-04-19T21:53:18.096Z,20.22
2018-04-19T21:55:46.543Z,20.21
2018-04-19T21:58:14.996Z,20.14
2018-04-19T22:00:43.450Z,20.10
2018-04-19T22:03:11.920Z,20.04
2018-04-19T22:05:41.070Z,19.96
2018-04-19T22:08:09.595Z,19.86
2018-04-19T22:10:37.973Z,19.91
2018-04-19T22:13:07.092Z,19.87
2018-04-19T22:15:35.452Z,19.86
2018-04-19T22:18:04.600Z,19.73
2018-04-19T22:20:32.960Z,19.62
2018-04-19T22:23:01.346Z,19.62
2018-04-19T22:25:29.715Z,19.55
2018-04-19T22:27:58.058Z,19.56
2018-04-19T22:30:27.434Z,19.64
2018-04-19T22:32:55.823Z,19.56
2018-04-19T22:35:25.098Z,19.51
2018-04-19T22:37:53.600Z,19.50
2018-04-19T22:40:22.030Z,19.50
2018-04-19T22:42:50.406Z,19.47
2018-04-19T22:45:18.830Z,19.41
2018-04-19T22:47:47.256Z,19.33
2018-04-19T22:50:16.627Z,19.27
2018-04-19T22:52:44.985Z,19.22
2018-04-19T22:55:13.363Z,19.14
2018-04-19T22:57:42.314Z,19.22
2018-04-19T23:00:10.717Z,19.22
2018-04-19T23:02:39.103Z,19.21
2018-04-19T23:05:07.526Z,19.20
2018-04-19T23:07:36.738Z,19.15
2018-04-19T23:10:05.255Z,19.15
2018-04-19T23:12:33.663Z,19.04
2018-04-19T23:15:02.009Z,19.07
2018-04-19T23:17:30.446Z,19.04
2018-04-19T23:19:59.469Z,19.05
2018-04-19T23:22:35.814Z,19.03
2018-04-19T23:25:04.994Z,18.88
2018-04-19T23:27:33.376Z,18.82
2018-04-19T23:30:01.807Z,18.84
2018-04-19T23:32:30.164Z,18.88
2018-04-19T23:34:58.621Z,18.86
2018-04-19T23:37:27.790Z,18.82
2018-04-19T23:39:56.374Z,18.78
2018-04-19T23:42:24.747Z,18.74
2018-04-19T23:44:53.232Z,18.74
2018-04-19T23:47:21.637Z,18.61
2018-04-19T23:49:50.784Z,18.47
2018-04-19T23:52:19.184Z,18.39
2018-04-19T23:54:47.585Z,18.32
2018-04-19T23:57:15.991Z,18.27
2018-04-19T23:59:45.154Z,18.20
